sensor_id;sensor_type;location;lat;lon;timestamp;temperature;humidity
65707;SHT31;52423;43.512;5.220;2022-11-15T00:01:21;13.84;91.05
65707;SHT31;52423;43.512;5.220;2022-11-15T00:03:50;13.88;90.30
65707;SHT31;52423;43.512;5.220;2022-11-15T00:06:16;13.94;90.04
65707;SHT31;52423;43.512;5.220;2022-11-15T00:08:41;13.92;89.34
65707;SHT31;52423;43.512;5.220;2022-11-15T00:11:09;13.88;89.61
65707;SHT31;52423;43.512;5.220;2022-11-15T00:13:35;13.89;90.39
65707;SHT31;52423;43.512;5.220;2022-11-15T00:16:01;13.91;89.93
65707;SHT31;52423;43.512;5.220;2022-11-15T00:18:27;13.95;89.96
65707;SHT31;52423;43.512;5.220;2022-11-15T00:20:53;14.00;89.46
65707;SHT31;52423;43.512;5.220;2022-11-15T00:23:18;13.95;89.66
65707;SHT31;52423;43.512;5.220;2022-11-15T00:25:44;14.02;89.45
65707;SHT31;52423;43.512;5.220;2022-11-15T00:28:09;14.01;89.58
65707;SHT31;52423;43.512;5.220;2022-11-15T00:30:34;14.00;89.52
65707;SHT31;52423;43.512;5.220;2022-11-15T00:33:06;14.01;89.53
65707;SHT31;52423;43.512;5.220;2022-11-15T00:35:33;14.00;88.90
65707;SHT31;52423;43.512;5.220;2022-11-15T00:37:59;14.01;88.93
65707;SHT31;52423;43.512;5.220;2022-11-15T00:40:24;13.98;89.02
65707;SHT31;52423;43.512;5.220;2022-11-15T00:42:50;13.98;88.72
65707;SHT31;52423;43.512;5.220;2022-11-15T00:45:15;13.91;89.26
65707;SHT31;52423;43.512;5.220;2022-11-15T00:47:44;13.92;89.12
65707;SHT31;52423;43.512;5.220;2022-11-15T00:50:10;13.97;88.92
65707;SHT31;52423;43.512;5.220;2022-11-15T00:52:35;13.95;89.20
65707;SHT31;52423;43.512;5.220;2022-11-15T00:55:00;13.92;88.23
65707;SHT31;52423;43.512;5.220;2022-11-15T00:57:26;13.97;88.56
65707;SHT31;52423;43.512;5.220;2022-11-15T00:59:51;14.11;88.37
65707;SHT31;52423;43.512;5.220;2022-11-15T01:02:17;13.77;90.29
65707;SHT31;52423;43.512;5.220;2022-11-15T01:04:42;13.88;89.44
65707;SHT31;52423;43.512;5.220;2022-11-15T01:07:07;13.98;88.32
65707;SHT31;52423;43.512;5.220;2022-11-15T01:09:33;13.97;88.11
65707;SHT31;52423;43.512;5.220;2022-11-15T01:11:58;13.94;88.19
65707;SHT31;52423;43.512;5.220;2022-11-15T01:14:23;13.98;88.19
65707;SHT31;52423;43.512;5.220;2022-11-15T01:16:49;14.01;87.41
65707;SHT31;52423;43.512;5.220;2022-11-15T01:19:14;14.02;87.75
65707;SHT31;52423;43.512;5.220;2022-11-15T01:21:39;13.82;89.92
65707;SHT31;52423;43.512;5.220;2022-11-15T01:24:05;13.82;88.75
65707;SHT31;52423;43.512;5.220;2022-11-15T01:26:30;13.86;88.33
65707;SHT31;52423;43.512;5.220;2022-11-15T01:28:56;13.89;87.64
65707;SHT31;52423;43.512;5.220;2022-11-15T01:31:21;13.94;87.86
65707;SHT31;52423;43.512;5.220;2022-11-15T01:33:47;13.92;87.68
65707;SHT31;52423;43.512;5.220;2022-11-15T01:36:16;13.92;87.68
65707;SHT31;52423;43.512;5.220;2022-11-15T01:38:42;13.82;87.73
65707;SHT31;52423;43.512;5.220;2022-11-15T01:41:15;13.94;88.12
65707;SHT31;52423;43.512;5.220;2022-11-15T01:43:41;13.89;87.69
65707;SHT31;52423;43.512;5.220;2022-11-15T01:46:22;13.98;87.60
65707;SHT31;52423;43.512;5.220;2022-11-15T01:48:51;14.01;87.40
65707;SHT31;52423;43.512;5.220;2022-11-15T01:51:18;14.02;87.40
65707;SHT31;52423;43.512;5.220;2022-11-15T01:53:46;13.95;87.37
65707;SHT31;52423;43.512;5.220;2022-11-15T01:56:25;13.94;87.18
65707;SHT31;52423;43.512;5.220;2022-11-15T01:58:55;14.01;86.75
65707;SHT31;52423;43.512;5.220;2022-11-15T02:01:24;14.04;86.68
65707;SHT31;52423;43.512;5.220;2022-11-15T02:03:56;14.02;86.43
65707;SHT31;52423;43.512;5.220;2022-11-15T02:06:23;13.98;87.23
65707;SHT31;52423;43.512;5.220;2022-11-15T02:08:49;14.05;86.94
65707;SHT31;52423;43.512;5.220;2022-11-15T02:11:15;14.06;86.64
65707;SHT31;52423;43.512;5.220;2022-11-15T02:13:40;14.02;86.30
65707;SHT31;52423;43.512;5.220;2022-11-15T02:18:57;14.11;86.52
65707;SHT31;52423;43.512;5.220;2022-11-15T02:22:10;14.04;86.01
65707;SHT31;52423;43.512;5.220;2022-11-15T02:27:42;14.12;86.44
65707;SHT31;52423;43.512;5.220;2022-11-15T02:32:50;14.00;86.14
65707;SHT31;52423;43.512;5.220;2022-11-15T02:40:57;14.05;86.03
65707;SHT31;52423;43.512;5.220;2022-11-15T02:46:42;14.06;85.77
65707;SHT31;52423;43.512;5.220;2022-11-15T02:49:31;14.01;86.48
65707;SHT31;52423;43.512;5.220;2022-11-15T02:51:57;14.00;86.51
65707;SHT31;52423;43.512;5.220;2022-11-15T02:54:25;14.01;86.41
65707;SHT31;52423;43.512;5.220;2022-11-15T02:56:54;14.05;86.24
65707;SHT31;52423;43.512;5.220;2022-11-15T03:04:44;14.02;86.04
65707;SHT31;52423;43.512;5.220;2022-11-15T03:07:23;13.97;86.19
65707;SHT31;52423;43.512;5.220;2022-11-15T03:15:09;13.98;86.12
65707;SHT31;52423;43.512;5.220;2022-11-15T03:17:47;14.00;85.98
65707;SHT31;52423;43.512;5.220;2022-11-15T03:20:15;13.98;85.76
65707;SHT31;52423;43.512;5.220;2022-11-15T03:22:44;13.97;85.74
65707;SHT31;52423;43.512;5.220;2022-11-15T03:25:12;14.01;85.86
65707;SHT31;52423;43.512;5.220;2022-11-15T03:27:43;13.98;85.33
65707;SHT31;52423;43.512;5.220;2022-11-15T03:30:10;13.97;85.14
65707;SHT31;52423;43.512;5.220;2022-11-15T03:32:44;13.97;84.91
65707;SHT31;52423;43.512;5.220;2022-11-15T03:35:18;13.98;85.12
65707;SHT31;52423;43.512;5.220;2022-11-15T03:40:30;14.02;84.90
65707;SHT31;52423;43.512;5.220;2022-11-15T03:43:04;14.00;84.88
65707;SHT31;52423;43.512;5.220;2022-11-15T03:45:41;13.97;84.73
65707;SHT31;52423;43.512;5.220;2022-11-15T03:48:21;14.00;85.15
65707;SHT31;52423;43.512;5.220;2022-11-15T03:50:48;14.00;84.47
65707;SHT31;52423;43.512;5.220;2022-11-15T03:53:14;14.04;84.79
65707;SHT31;52423;43.512;5.220;2022-11-15T03:55:39;14.02;84.79
65707;SHT31;52423;43.512;5.220;2022-11-15T03:58:05;14.05;84.93
65707;SHT31;52423;43.512;5.220;2022-11-15T04:00:30;14.00;84.12
65707;SHT31;52423;43.512;5.220;2022-11-15T04:02:56;14.02;84.49
65707;SHT31;52423;43.512;5.220;2022-11-15T04:05:21;14.04;84.60
65707;SHT31;52423;43.512;5.220;2022-11-15T04:07:47;14.06;84.02
65707;SHT31;52423;43.512;5.220;2022-11-15T04:10:12;14.02;84.60
65707;SHT31;52423;43.512;5.220;2022-11-15T04:12:41;14.06;84.33
65707;SHT31;52423;43.512;5.220;2022-11-15T04:15:12;14.04;83.97
65707;SHT31;52423;43.512;5.220;2022-11-15T04:20:04;14.04;83.77
65707;SHT31;52423;43.512;5.220;2022-11-15T04:22:52;14.05;84.19
65707;SHT31;52423;43.512;5.220;2022-11-15T04:25:36;14.09;83.60
65707;SHT31;52423;43.512;5.220;2022-11-15T04:28:01;14.11;83.31
65707;SHT31;52423;43.512;5.220;2022-11-15T04:30:26;14.04;83.73
65707;SHT31;52423;43.512;5.220;2022-11-15T04:32:52;14.01;84.29
65707;SHT31;52423;43.512;5.220;2022-11-15T04:35:17;14.00;84.49
65707;SHT31;52423;43.512;5.220;2022-11-15T04:37:42;14.02;84.15
65707;SHT31;52423;43.512;5.220;2022-11-15T04:40:08;14.01;83.86
65707;SHT31;52423;43.512;5.220;2022-11-15T04:42:33;14.00;84.00
65707;SHT31;52423;43.512;5.220;2022-11-15T04:44:59;14.02;83.38
65707;SHT31;52423;43.512;5.220;2022-11-15T04:47:24;14.01;83.47
65707;SHT31;52423;43.512;5.220;2022-11-15T04:49:49;14.00;83.37
65707;SHT31;52423;43.512;5.220;2022-11-15T04:52:15;13.92;83.59
65707;SHT31;52423;43.512;5.220;2022-11-15T04:54:40;13.97;83.96
65707;SHT31;52423;43.512;5.220;2022-11-15T04:57:07;14.00;83.74
65707;SHT31;52423;43.512;5.220;2022-11-15T04:59:32;14.04;83.32
65707;SHT31;52423;43.512;5.220;2022-11-15T05:01:57;14.01;83.60
65707;SHT31;52423;43.512;5.220;2022-11-15T05:04:23;14.05;83.73
65707;SHT31;52423;43.512;5.220;2022-11-15T05:06:51;14.00;83.60
65707;SHT31;52423;43.512;5.220;2022-11-15T05:09:21;14.02;83.29
65707;SHT31;52423;43.512;5.220;2022-11-15T05:11:46;13.98;83.36
65707;SHT31;52423;43.512;5.220;2022-11-15T05:14:12;14.02;83.37
65707;SHT31;52423;43.512;5.220;2022-11-15T05:16:38;14.00;83.49
65707;SHT31;52423;43.512;5.220;2022-11-15T05:19:04;13.97;82.64
65707;SHT31;52423;43.512;5.220;2022-11-15T05:21:30;13.94;82.76
65707;SHT31;52423;43.512;5.220;2022-11-15T05:23:56;13.94;83.57
65707;SHT31;52423;43.512;5.220;2022-11-15T05:26:21;13.92;83.26
65707;SHT31;52423;43.512;5.220;2022-11-15T05:28:51;13.88;82.72
65707;SHT31;52423;43.512;5.220;2022-11-15T05:31:16;13.92;82.91
65707;SHT31;52423;43.512;5.220;2022-11-15T05:33:43;13.97;83.18
65707;SHT31;52423;43.512;5.220;2022-11-15T05:38:53;13.98;83.23
65707;SHT31;52423;43.512;5.220;2022-11-15T05:41:21;13.89;83.06
65707;SHT31;52423;43.512;5.220;2022-11-15T05:43:49;13.89;82.72
65707;SHT31;52423;43.512;5.220;2022-11-15T05:46:15;13.95;82.70
65707;SHT31;52423;43.512;5.220;2022-11-15T05:48:43;13.95;82.59
65707;SHT31;52423;43.512;5.220;2022-11-15T05:51:12;13.91;83.16
65707;SHT31;52423;43.512;5.220;2022-11-15T05:53:38;13.89;82.74
65707;SHT31;52423;43.512;5.220;2022-11-15T05:56:04;13.89;82.67
65707;SHT31;52423;43.512;5.220;2022-11-15T05:58:32;13.95;82.64
65707;SHT31;52423;43.512;5.220;2022-11-15T06:00:58;13.88;82.69
65707;SHT31;52423;43.512;5.220;2022-11-15T06:03:24;13.84;82.70
65707;SHT31;52423;43.512;5.220;2022-11-15T06:05:49;13.86;83.45
65707;SHT31;52423;43.512;5.220;2022-11-15T06:08:15;13.86;83.25
65707;SHT31;52423;43.512;5.220;2022-11-15T06:10:41;13.85;82.99
65707;SHT31;52423;43.512;5.220;2022-11-15T06:13:06;13.88;83.38
65707;SHT31;52423;43.512;5.220;2022-11-15T06:15:32;13.94;82.45
65707;SHT31;52423;43.512;5.220;2022-11-15T06:17:59;13.86;83.72
65707;SHT31;52423;43.512;5.220;2022-11-15T06:20:25;13.91;83.12
65707;SHT31;52423;43.512;5.220;2022-11-15T06:22:56;13.95;83.00
65707;SHT31;52423;43.512;5.220;2022-11-15T06:25:22;13.89;83.32
65707;SHT31;52423;43.512;5.220;2022-11-15T06:27:57;13.88;83.78
65707;SHT31;52423;43.512;5.220;2022-11-15T06:30:24;13.89;83.54
65707;SHT31;52423;43.512;5.220;2022-11-15T06:32:50;13.92;83.01
65707;SHT31;52423;43.512;5.220;2022-11-15T06:35:16;13.98;83.04
65707;SHT31;52423;43.512;5.220;2022-11-15T06:37:42;13.98;83.01
65707;SHT31;52423;43.512;5.220;2022-11-15T06:40:08;13.97;83.02
65707;SHT31;52423;43.512;5.220;2022-11-15T06:42:34;14.00;82.86
65707;SHT31;52423;43.512;5.220;2022-11-15T06:44:59;13.95;82.92
65707;SHT31;52423;43.512;5.220;2022-11-15T06:47:25;14.02;83.18
65707;SHT31;52423;43.512;5.220;2022-11-15T06:49:50;14.00;83.61
65707;SHT31;52423;43.512;5.220;2022-11-15T06:52:15;13.98;83.16
65707;SHT31;52423;43.512;5.220;2022-11-15T06:54:43;13.98;83.31
65707;SHT31;52423;43.512;5.220;2022-11-15T06:57:09;14.02;83.03
65707;SHT31;52423;43.512;5.220;2022-11-15T06:59:34;14.08;82.66
65707;SHT31;52423;43.512;5.220;2022-11-15T07:01:59;14.05;83.24
65707;SHT31;52423;43.512;5.220;2022-11-15T07:04:25;14.16;82.39
65707;SHT31;52423;43.512;5.220;2022-11-15T07:06:50;14.18;82.43
65707;SHT31;52423;43.512;5.220;2022-11-15T07:09:15;14.22;81.79
65707;SHT31;52423;43.512;5.220;2022-11-15T07:11:41;14.19;82.58
65707;SHT31;52423;43.512;5.220;2022-11-15T07:14:06;14.22;82.81
65707;SHT31;52423;43.512;5.220;2022-11-15T07:16:32;14.28;82.59
65707;SHT31;52423;43.512;5.220;2022-11-15T07:18:57;14.25;82.45
65707;SHT31;52423;43.512;5.220;2022-11-15T07:21:23;14.30;82.59
65707;SHT31;52423;43.512;5.220;2022-11-15T07:23:48;14.36;82.41
65707;SHT31;52423;43.512;5.220;2022-11-15T07:26:14;14.34;82.24
65707;SHT31;52423;43.512;5.220;2022-11-15T07:28:39;14.37;82.36
65707;SHT31;52423;43.512;5.220;2022-11-15T07:31:06;14.42;82.27
65707;SHT31;52423;43.512;5.220;2022-11-15T07:33:33;14.37;81.92
65707;SHT31;52423;43.512;5.220;2022-11-15T07:35:59;14.44;81.75
65707;SHT31;52423;43.512;5.220;2022-11-15T07:38:27;14.47;82.42
65707;SHT31;52423;43.512;5.220;2022-11-15T07:40:57;14.56;81.87
65707;SHT31;52423;43.512;5.220;2022-11-15T07:43:23;14.60;81.80
65707;SHT31;52423;43.512;5.220;2022-11-15T07:45:48;14.59;82.11
65707;SHT31;52423;43.512;5.220;2022-11-15T07:48:14;14.62;81.62
65707;SHT31;52423;43.512;5.220;2022-11-15T07:50:42;14.64;81.85
65707;SHT31;52423;43.512;5.220;2022-11-15T07:53:09;14.66;81.79
65707;SHT31;52423;43.512;5.220;2022-11-15T07:55:34;14.67;81.86
65707;SHT31;52423;43.512;5.220;2022-11-15T07:58:08;14.64;82.06
65707;SHT31;52423;43.512;5.220;2022-11-15T08:00:34;14.72;81.84
65707;SHT31;52423;43.512;5.220;2022-11-15T08:03:06;14.74;82.15
65707;SHT31;52423;43.512;5.220;2022-11-15T08:05:33;14.76;82.12
65707;SHT31;52423;43.512;5.220;2022-11-15T08:07:59;14.77;82.09
65707;SHT31;52423;43.512;5.220;2022-11-15T08:10:25;14.81;81.88
65707;SHT31;52423;43.512;5.220;2022-11-15T08:13:04;14.84;82.52
65707;SHT31;52423;43.512;5.220;2022-11-15T08:15:30;14.85;81.85
65707;SHT31;52423;43.512;5.220;2022-11-15T08:17:58;14.85;81.55
65707;SHT31;52423;43.512;5.220;2022-11-15T08:20:24;14.95;81.93
65707;SHT31;52423;43.512;5.220;2022-11-15T08:22:50;15.01;81.62
65707;SHT31;52423;43.512;5.220;2022-11-15T08:25:16;15.00;81.92
65707;SHT31;52423;43.512;5.220;2022-11-15T08:27:41;15.08;82.00
65707;SHT31;52423;43.512;5.220;2022-11-15T08:30:07;15.07;81.66
65707;SHT31;52423;43.512;5.220;2022-11-15T08:32:32;15.05;82.61
65707;SHT31;52423;43.512;5.220;2022-11-15T08:34:57;15.04;82.22
65707;SHT31;52423;43.512;5.220;2022-11-15T08:37:23;15.04;81.87
65707;SHT31;52423;43.512;5.220;2022-11-15T08:39:48;15.04;82.07
65707;SHT31;52423;43.512;5.220;2022-11-15T08:42:14;15.10;81.93
65707;SHT31;52423;43.512;5.220;2022-11-15T08:44:41;15.12;82.09
65707;SHT31;52423;43.512;5.220;2022-11-15T08:47:07;15.14;81.89
65707;SHT31;52423;43.512;5.220;2022-11-15T08:49:32;15.12;82.09
65707;SHT31;52423;43.512;5.220;2022-11-15T08:51:58;15.11;82.69
65707;SHT31;52423;43.512;5.220;2022-11-15T08:54:23;15.14;82.18
65707;SHT31;52423;43.512;5.220;2022-11-15T08:56:48;15.17;82.14
65707;SHT31;52423;43.512;5.220;2022-11-15T08:59:13;15.21;82.03
65707;SHT31;52423;43.512;5.220;2022-11-15T09:01:39;15.22;82.42
65707;SHT31;52423;43.512;5.220;2022-11-15T09:04:04;15.27;82.36
65707;SHT31;52423;43.512;5.220;2022-11-15T09:06:30;15.34;82.30
65707;SHT31;52423;43.512;5.220;2022-11-15T09:08:56;15.32;81.97
65707;SHT31;52423;43.512;5.220;2022-11-15T09:11:22;15.38;81.53
65707;SHT31;52423;43.512;5.220;2022-11-15T09:13:48;15.39;82.05
65707;SHT31;52423;43.512;5.220;2022-11-15T09:16:14;15.41;82.00
65707;SHT31;52423;43.512;5.220;2022-11-15T09:18:40;15.42;81.88
65707;SHT31;52423;43.512;5.220;2022-11-15T09:21:06;15.41;81.78
65707;SHT31;52423;43.512;5.220;2022-11-15T09:23:32;15.41;81.21
65707;SHT31;52423;43.512;5.220;2022-11-15T09:26:03;15.45;81.37
65707;SHT31;52423;43.512;5.220;2022-11-15T09:28:29;15.51;81.52
65707;SHT31;52423;43.512;5.220;2022-11-15T09:31:00;15.70;81.43
65707;SHT31;52423;43.512;5.220;2022-11-15T09:33:26;15.75;80.81
65707;SHT31;52423;43.512;5.220;2022-11-15T09:35:52;15.86;80.67
65707;SHT31;52423;43.512;5.220;2022-11-15T09:38:18;16.31;80.17
65707;SHT31;52423;43.512;5.220;2022-11-15T09:40:49;16.71;78.69
65707;SHT31;52423;43.512;5.220;2022-11-15T09:43:37;16.76;78.80
65707;SHT31;52423;43.512;5.220;2022-11-15T09:49:01;16.57;78.82
65707;SHT31;52423;43.512;5.220;2022-11-15T09:51:33;16.33;78.98
65707;SHT31;52423;43.512;5.220;2022-11-15T09:56:28;16.18;79.69
65707;SHT31;52423;43.512;5.220;2022-11-15T10:04:30;16.43;79.29
65707;SHT31;52423;43.512;5.220;2022-11-15T10:09:44;16.85;78.56
65707;SHT31;52423;43.512;5.220;2022-11-15T10:12:12;17.03;77.95
65707;SHT31;52423;43.512;5.220;2022-11-15T10:14:38;17.05;77.77
65707;SHT31;52423;43.512;5.220;2022-11-15T10:19:54;17.05;77.77
65707;SHT31;52423;43.512;5.220;2022-11-15T16:39:10;16.04;84.07
65707;SHT31;52423;43.512;5.220;2022-11-15T16:41:38;16.07;83.91
65707;SHT31;52423;43.512;5.220;2022-11-15T16:44:03;16.12;83.51
65707;SHT31;52423;43.512;5.220;2022-11-15T16:46:29;16.10;83.80
65707;SHT31;52423;43.512;5.220;2022-11-15T16:48:54;16.14;83.61
65707;SHT31;52423;43.512;5.220;2022-11-15T16:51:20;16.13;83.68
65707;SHT31;52423;43.512;5.220;2022-11-15T16:53:46;16.18;83.40
65707;SHT31;52423;43.512;5.220;2022-11-15T16:56:26;16.20;83.54
65707;SHT31;52423;43.512;5.220;2022-11-15T16:58:53;16.24;83.48
65707;SHT31;52423;43.512;5.220;2022-11-15T17:01:26;16.23;83.75
65707;SHT31;52423;43.512;5.220;2022-11-15T17:03:52;16.30;83.11
65707;SHT31;52423;43.512;5.220;2022-11-15T17:06:18;16.28;83.67
65707;SHT31;52423;43.512;5.220;2022-11-15T17:08:46;16.33;83.32
65707;SHT31;52423;43.512;5.220;2022-11-15T17:11:15;16.34;83.51
65707;SHT31;52423;43.512;5.220;2022-11-15T17:13:40;16.35;83.33
65707;SHT31;52423;43.512;5.220;2022-11-15T17:16:12;16.37;82.75
65707;SHT31;52423;43.512;5.220;2022-11-15T17:18:38;16.35;83.00
65707;SHT31;52423;43.512;5.220;2022-11-15T17:21:11;16.35;82.97
65707;SHT31;52423;43.512;5.220;2022-11-15T17:23:37;16.41;82.63
65707;SHT31;52423;43.512;5.220;2022-11-15T17:26:03;16.34;83.18
65707;SHT31;52423;43.512;5.220;2022-11-15T17:28:34;16.38;83.04
65707;SHT31;52423;43.512;5.220;2022-11-15T17:30:59;16.34;83.28
65707;SHT31;52423;43.512;5.220;2022-11-15T17:33:25;16.34;82.70
65707;SHT31;52423;43.512;5.220;2022-11-15T17:35:56;16.37;83.04
65707;SHT31;52423;43.512;5.220;2022-11-15T17:38:22;16.38;83.03
65707;SHT31;52423;43.512;5.220;2022-11-15T17:40:47;16.35;82.61
65707;SHT31;52423;43.512;5.220;2022-11-15T17:43:13;16.37;83.17
65707;SHT31;52423;43.512;5.220;2022-11-15T17:45:41;16.37;82.92
65707;SHT31;52423;43.512;5.220;2022-11-15T17:48:06;16.34;82.99
65707;SHT31;52423;43.512;5.220;2022-11-15T17:50:32;16.33;83.04
65707;SHT31;52423;43.512;5.220;2022-11-15T17:52:58;16.35;83.05
65707;SHT31;52423;43.512;5.220;2022-11-15T17:55:24;16.31;83.11
65707;SHT31;52423;43.512;5.220;2022-11-15T17:57:49;16.28;83.31
65707;SHT31;52423;43.512;5.220;2022-11-15T18:00:15;16.25;83.25
65707;SHT31;52423;43.512;5.220;2022-11-15T18:02:43;16.23;83.38
65707;SHT31;52423;43.512;5.220;2022-11-15T18:05:08;16.23;82.94
65707;SHT31;52423;43.512;5.220;2022-11-15T18:07:34;16.21;83.32
65707;SHT31;52423;43.512;5.220;2022-11-15T18:09:59;16.20;83.48
65707;SHT31;52423;43.512;5.220;2022-11-15T18:12:25;16.21;83.33
65707;SHT31;52423;43.512;5.220;2022-11-15T18:14:50;16.18;83.72
65707;SHT31;52423;43.512;5.220;2022-11-15T18:17:15;16.23;83.42
65707;SHT31;52423;43.512;5.220;2022-11-15T18:19:43;16.21;83.29
65707;SHT31;52423;43.512;5.220;2022-11-15T18:22:08;16.20;83.57
65707;SHT31;52423;43.512;5.220;2022-11-15T18:24:34;16.16;83.62
65707;SHT31;52423;43.512;5.220;2022-11-15T18:27:02;16.17;83.83
65707;SHT31;52423;43.512;5.220;2022-11-15T18:29:28;16.10;83.87
65707;SHT31;52423;43.512;5.220;2022-11-15T18:31:53;16.12;83.83
65707;SHT31;52423;43.512;5.220;2022-11-15T18:34:21;16.12;83.70
65707;SHT31;52423;43.512;5.220;2022-11-15T18:36:48;16.14;83.56
65707;SHT31;52423;43.512;5.220;2022-11-15T18:39:14;16.13;83.83
65707;SHT31;52423;43.512;5.220;2022-11-15T18:41:41;16.16;83.68
65707;SHT31;52423;43.512;5.220;2022-11-15T18:44:07;16.16;83.62
65707;SHT31;52423;43.512;5.220;2022-11-15T18:46:32;16.21;83.44
65707;SHT31;52423;43.512;5.220;2022-11-15T18:48:59;16.18;83.55
65707;SHT31;52423;43.512;5.220;2022-11-15T18:51:27;16.21;83.45
65707;SHT31;52423;43.512;5.220;2022-11-15T18:53:55;16.25;83.24
65707;SHT31;52423;43.512;5.220;2022-11-15T18:56:22;16.23;83.26
65707;SHT31;52423;43.512;5.220;2022-11-15T18:58:54;16.24;83.41
65707;SHT31;52423;43.512;5.220;2022-11-15T19:01:25;16.31;82.99
65707;SHT31;52423;43.512;5.220;2022-11-15T19:03:53;16.31;82.65
65707;SHT31;52423;43.512;5.220;2022-11-15T19:06:21;16.28;82.90
65707;SHT31;52423;43.512;5.220;2022-11-15T19:08:48;16.34;82.49
65707;SHT31;52423;43.512;5.220;2022-11-15T19:11:20;16.27;83.06
65707;SHT31;52423;43.512;5.220;2022-11-15T19:13:52;16.25;82.94
65707;SHT31;52423;43.512;5.220;2022-11-15T19:16:17;16.21;83.02
65707;SHT31;52423;43.512;5.220;2022-11-15T19:18:42;16.21;83.16
65707;SHT31;52423;43.512;5.220;2022-11-15T19:21:10;16.21;83.22
65707;SHT31;52423;43.512;5.220;2022-11-15T19:23:37;16.16;83.61
65707;SHT31;52423;43.512;5.220;2022-11-15T19:26:04;16.23;83.21
65707;SHT31;52423;43.512;5.220;2022-11-15T19:28:31;16.16;83.61
65707;SHT31;52423;43.512;5.220;2022-11-15T19:31:11;16.17;83.59
65707;SHT31;52423;43.512;5.220;2022-11-15T19:33:38;16.20;83.22
65707;SHT31;52423;43.512;5.220;2022-11-15T19:36:06;16.20;83.17
65707;SHT31;52423;43.512;5.220;2022-11-15T19:38:33;16.23;83.11
65707;SHT31;52423;43.512;5.220;2022-11-15T19:41:03;16.20;83.50
65707;SHT31;52423;43.512;5.220;2022-11-15T19:43:29;16.24;83.40
65707;SHT31;52423;43.512;5.220;2022-11-15T19:45:58;16.24;83.43
65707;SHT31;52423;43.512;5.220;2022-11-15T19:48:23;16.20;83.49
65707;SHT31;52423;43.512;5.220;2022-11-15T19:50:49;16.23;83.66
65707;SHT31;52423;43.512;5.220;2022-11-15T19:53:15;16.27;83.11
65707;SHT31;52423;43.512;5.220;2022-11-15T19:55:40;16.24;83.22
65707;SHT31;52423;43.512;5.220;2022-11-15T19:58:05;16.23;83.52
65707;SHT31;52423;43.512;5.220;2022-11-15T20:00:31;16.18;83.48
65707;SHT31;52423;43.512;5.220;2022-11-15T20:02:56;16.17;83.53
65707;SHT31;52423;43.512;5.220;2022-11-15T20:05:21;16.18;83.60
65707;SHT31;52423;43.512;5.220;2022-11-15T20:07:47;16.20;83.71
65707;SHT31;52423;43.512;5.220;2022-11-15T20:10:13;16.20;83.43
65707;SHT31;52423;43.512;5.220;2022-11-15T20:12:38;16.18;83.53
65707;SHT31;52423;43.512;5.220;2022-11-15T20:15:04;16.18;83.55
65707;SHT31;52423;43.512;5.220;2022-11-15T20:17:30;16.09;83.70
65707;SHT31;52423;43.512;5.220;2022-11-15T20:19:55;16.12;83.87
65707;SHT31;52423;43.512;5.220;2022-11-15T20:22:22;16.18;83.42
65707;SHT31;52423;43.512;5.220;2022-11-15T20:24:48;16.12;83.75
65707;SHT31;52423;43.512;5.220;2022-11-15T20:27:13;16.14;83.79
65707;SHT31;52423;43.512;5.220;2022-11-15T20:29:39;16.18;83.42
65707;SHT31;52423;43.512;5.220;2022-11-15T20:32:04;16.13;83.82
65707;SHT31;52423;43.512;5.220;2022-11-15T20:34:30;16.09;83.88
65707;SHT31;52423;43.512;5.220;2022-11-15T20:36:55;16.10;83.65
65707;SHT31;52423;43.512;5.220;2022-11-15T20:39:21;16.12;83.70
65707;SHT31;52423;43.512;5.220;2022-11-15T20:41:47;16.10;83.91
65707;SHT31;52423;43.512;5.220;2022-11-15T20:44:13;16.09;83.53
65707;SHT31;52423;43.512;5.220;2022-11-15T20:46:38;16.10;83.72
65707;SHT31;52423;43.512;5.220;2022-11-15T20:49:04;16.09;83.75
65707;SHT31;52423;43.512;5.220;2022-11-15T20:51:30;16.09;83.79
65707;SHT31;52423;43.512;5.220;2022-11-15T20:53:56;16.09;83.86
65707;SHT31;52423;43.512;5.220;2022-11-15T20:56:22;16.12;83.64
65707;SHT31;52423;43.512;5.220;2022-11-15T20:58:48;16.09;83.85
65707;SHT31;52423;43.512;5.220;2022-11-15T21:01:15;16.12;83.61
65707;SHT31;52423;43.512;5.220;2022-11-15T21:03:42;16.06;83.92
65707;SHT31;52423;43.512;5.220;2022-11-15T21:06:08;16.06;83.93
65707;SHT31;52423;43.512;5.220;2022-11-15T21:08:33;16.06;84.15
65707;SHT31;52423;43.512;5.220;2022-11-15T21:11:17;16.04;83.97
65707;SHT31;52423;43.512;5.220;2022-11-15T21:14:01;16.07;83.72
65707;SHT31;52423;43.512;5.220;2022-11-15T21:16:27;16.07;83.83
65707;SHT31;52423;43.512;5.220;2022-11-15T21:18:52;16.09;83.76
65707;SHT31;52423;43.512;5.220;2022-11-15T21:21:17;16.12;83.61
65707;SHT31;52423;43.512;5.220;2022-11-15T21:23:43;16.06;83.69
65707;SHT31;52423;43.512;5.220;2022-11-15T21:26:08;16.04;83.71
65707;SHT31;52423;43.512;5.220;2022-11-15T21:28:33;16.00;83.65
65707;SHT31;52423;43.512;5.220;2022-11-15T21:30:59;16.03;84.01
65707;SHT31;52423;43.512;5.220;2022-11-15T21:33:25;16.04;83.95
65707;SHT31;52423;43.512;5.220;2022-11-15T21:35:54;16.04;84.10
65707;SHT31;52423;43.512;5.220;2022-11-15T21:38:21;16.09;84.00
65707;SHT31;52423;43.512;5.220;2022-11-15T21:40:48;16.04;83.78
65707;SHT31;52423;43.512;5.220;2022-11-15T21:43:15;16.02;84.16
65707;SHT31;52423;43.512;5.220;2022-11-15T21:45:40;16.03;84.35
65707;SHT31;52423;43.512;5.220;2022-11-15T21:48:05;16.06;84.00
65707;SHT31;52423;43.512;5.220;2022-11-15T21:50:31;16.04;84.01
65707;SHT31;52423;43.512;5.220;2022-11-15T21:52:57;16.10;83.76
65707;SHT31;52423;43.512;5.220;2022-11-15T21:55:22;16.07;83.59
65707;SHT31;52423;43.512;5.220;2022-11-15T21:57:47;16.10;83.54
65707;SHT31;52423;43.512;5.220;2022-11-15T22:00:14;16.09;83.86
65707;SHT31;52423;43.512;5.220;2022-11-15T22:02:59;16.18;83.25
65707;SHT31;52423;43.512;5.220;2022-11-15T22:05:25;16.21;83.24
65707;SHT31;52423;43.512;5.220;2022-11-15T22:07:50;16.16;83.02
65707;SHT31;52423;43.512;5.220;2022-11-15T22:10:15;16.20;83.21
65707;SHT31;52423;43.512;5.220;2022-11-15T22:12:41;16.20;83.05
65707;SHT31;52423;43.512;5.220;2022-11-15T22:15:06;16.20;82.90
65707;SHT31;52423;43.512;5.220;2022-11-15T22:17:32;16.17;83.30
65707;SHT31;52423;43.512;5.220;2022-11-15T22:20:16;16.20;83.17
65707;SHT31;52423;43.512;5.220;2022-11-15T22:22:41;16.10;83.18
65707;SHT31;52423;43.512;5.220;2022-11-15T22:25:08;16.16;83.16
65707;SHT31;52423;43.512;5.220;2022-11-15T22:27:33;16.14;83.33
65707;SHT31;52423;43.512;5.220;2022-11-15T22:29:58;16.17;83.25
65707;SHT31;52423;43.512;5.220;2022-11-15T22:32:24;16.17;83.15
65707;SHT31;52423;43.512;5.220;2022-11-15T22:34:49;16.21;82.93
65707;SHT31;52423;43.512;5.220;2022-11-15T22:37:14;16.17;83.07
65707;SHT31;52423;43.512;5.220;2022-11-15T22:39:40;16.16;83.29